^^
Saratoga-Weather Station Historical Data
Daily Summary for August 2, 2020 Units:  Both    English   Metric
Daily Weekly Monthly Yearly Custom
  High: Low: Average:
Temperature: 57.4 °F /  14.1 °C 42.4 °F /  5.8 °C 49.5 °F /  9.7 °C
Dew Point: 45.5 °F /  7.5 °C 39.6 °F /  4.2 °C 42.6 °F /  5.9 °C
Humidity: 92% 54% 79%
Wind Speed: 19mph /  30.6km/h - 3.7mph /  5.9km/h
Wind Gust: 19mph /  30.6km/h - -
Wind- - West
Pressure: 30 in /  1015.2 hPa 29.7 in /  1005.8 hPa -
Precipitation: 0.01 in /  0.2 mm    
Historical Graphs
 
 
Tabular Data for August 2, 2020
Time Temperature Dew Point Pressure Wind Wind Speed Wind Gust Humidity Rainfall Rate (Hourly) solar
00:00 47.1 °F /  8.4 °C 44.6 °F /  7 °C 29.7in /  1005.8hPa West 0.9mph /  1.4km/h 4mph /  6.4km/h 91% 0in /  0.0mm 0 W/m2
00:05 47.1 °F /  8.4 °C 44.6 °F /  7 °C 29.7in /  1006.1hPa NW 4mph /  6.4km/h 4mph /  6.4km/h 91% 0in /  0.0mm 0 W/m2
00:10 47.1 °F /  8.4 °C 44.6 °F /  7 °C 29.7in /  1006.1hPa SSW 2.9mph /  4.7km/h 6mph /  9.7km/h 91% 0in /  0.0mm 0 W/m2
00:15 47.5 °F /  8.6 °C 45 °F /  7.2 °C 29.7in /  1006.1hPa WSW 6mph /  9.7km/h 8mph /  12.9km/h 91% 0in /  0.0mm 0 W/m2
00:20 47.7 °F /  8.7 °C 45 °F /  7.2 °C 29.7in /  1006.1hPa WSW 4.9mph /  7.9km/h 10mph /  16.1km/h 90% 0in /  0.0mm 0 W/m2
00:25 47.8 °F /  8.8 °C 45 °F /  7.2 °C 29.7in /  1006.1hPa West 4mph /  6.4km/h 4mph /  6.4km/h 90% 0in /  0.0mm 0 W/m2
00:30 47.7 °F /  8.7 °C 45 °F /  7.2 °C 29.7in /  1006.1hPa West 4mph /  6.4km/h 10mph /  16.1km/h 90% 0in /  0.0mm 0 W/m2
00:36 47.5 °F /  8.6 °C 44.8 °F /  7.1 °C 29.7in /  1006.4hPa West 4mph /  6.4km/h 4mph /  6.4km/h 90% 0in /  0.0mm 0 W/m2
00:41 47.3 °F /  8.5 °C 44.6 °F /  7 °C 29.7in /  1006.4hPa West 2.9mph /  4.7km/h 9mph /  14.5km/h 90% 0in /  0.0mm 0 W/m2
00:46 47.1 °F /  8.4 °C 44.4 °F /  6.9 °C 29.7in /  1006.4hPa WSW 4.9mph /  7.9km/h 5mph /  8km/h 90% 0in /  0.0mm 0 W/m2
00:51 47.1 °F /  8.4 °C 44.4 °F /  6.9 °C 29.7in /  1006.4hPa WSW 2mph /  3.2km/h 8mph /  12.9km/h 90% 0in /  0.0mm 0 W/m2
00:56 46.9 °F /  8.3 °C 44.2 °F /  6.8 °C 29.7in /  1006.4hPa WNW 2mph /  3.2km/h 4mph /  6.4km/h 90% 0in /  0.0mm 0 W/m2
01:01 46.9 °F /  8.3 °C 44.2 °F /  6.8 °C 29.7in /  1006.8hPa WNW 2.9mph /  4.7km/h 4mph /  6.4km/h 90% 0in /  0.0mm 0 W/m2
01:06 46.8 °F /  8.2 °C 44.1 °F /  6.7 °C 29.7in /  1006.8hPa WNW 2.9mph /  4.7km/h 7mph /  11.3km/h 90% 0in /  0.0mm 0 W/m2
01:11 46.8 °F /  8.2 °C 44.1 °F /  6.7 °C 29.7in /  1006.8hPa WNW 2mph /  3.2km/h 10mph /  16.1km/h 90% 0in /  0.0mm 0 W/m2
01:16 46.6 °F /  8.1 °C 43.9 °F /  6.6 °C 29.7in /  1006.8hPa West 2mph /  3.2km/h 2mph /  3.2km/h 90% 0in /  0.0mm 0 W/m2
01:21 46.2 °F /  7.9 °C 43.5 °F /  6.4 °C 29.7in /  1006.8hPa WNW 0.9mph /  1.4km/h 10mph /  16.1km/h 90% 0in /  0.0mm 0 W/m2
01:26 46 °F /  7.8 °C 43.5 °F /  6.4 °C 29.7in /  1006.8hPa WSW 0.9mph /  1.4km/h 4mph /  6.4km/h 91% 0in /  0.0mm 0 W/m2
01:31 46 °F /  7.8 °C 43.5 °F /  6.4 °C 29.7in /  1006.8hPa WSW 2mph /  3.2km/h 6mph /  9.7km/h 91% 0in /  0.0mm 0 W/m2
01:36 45.9 °F /  7.7 °C 43.3 °F /  6.3 °C 29.7in /  1006.8hPa WSW 2mph /  3.2km/h 2mph /  3.2km/h 91% 0in /  0.0mm 0 W/m2
01:41 45.7 °F /  7.6 °C 43.2 °F /  6.2 °C 29.7in /  1006.8hPa WSW 6mph /  9.7km/h 6mph /  9.7km/h 91% 0in /  0.0mm 0 W/m2
01:46 45.7 °F /  7.6 °C 43.5 °F /  6.4 °C 29.7in /  1006.8hPa West 0.9mph /  1.4km/h 4mph /  6.4km/h 92% 0in /  0.0mm 0 W/m2
01:51 45.5 °F /  7.5 °C 43.3 °F /  6.3 °C 29.7in /  1006.8hPa WSW 2.9mph /  4.7km/h 7mph /  11.3km/h 92% 0in /  0.0mm 0 W/m2
01:56 45.5 °F /  7.5 °C 43.3 °F /  6.3 °C 29.7in /  1007.1hPa WSW 2mph /  3.2km/h 8mph /  12.9km/h 92% 0in /  0.0mm 0 W/m2
02:01 45.7 °F /  7.6 °C 43.5 °F /  6.4 °C 29.7in /  1007.1hPa WSW 4mph /  6.4km/h 4mph /  6.4km/h 92% 0in /  0.0mm 0 W/m2
02:06 45.7 °F /  7.6 °C 43.5 °F /  6.4 °C 29.7in /  1007.1hPa SW 2.9mph /  4.7km/h 7mph /  11.3km/h 92% 0in /  0.0mm 0 W/m2
02:11 45.5 °F /  7.5 °C 43.3 °F /  6.3 °C 29.7in /  1007.1hPa WNW 0.9mph /  1.4km/h 9mph /  14.5km/h 92% 0in /  0.0mm 0 W/m2
02:16 45.7 °F /  7.6 °C 43.5 °F /  6.4 °C 29.7in /  1007.1hPa WNW 2.9mph /  4.7km/h 6mph /  9.7km/h 92% 0in /  0.0mm 0 W/m2
02:21 45.7 °F /  7.6 °C 43.5 °F /  6.4 °C 29.7in /  1007.1hPa West 2mph /  3.2km/h 9mph /  14.5km/h 92% 0in /  0.0mm 0 W/m2
02:26 45.7 °F /  7.6 °C 43.2 °F /  6.2 °C 29.7in /  1007.1hPa WNW 2.9mph /  4.7km/h 4mph /  6.4km/h 91% 0in /  0.0mm 0 W/m2
02:31 45.7 °F /  7.6 °C 43.2 °F /  6.2 °C 29.7in /  1007.1hPa WNW 2.9mph /  4.7km/h 8mph /  12.9km/h 91% 0in /  0.0mm 0 W/m2
02:36 45.7 °F /  7.6 °C 43.2 °F /  6.2 °C 29.7in /  1007.1hPa West 2mph /  3.2km/h 4mph /  6.4km/h 91% 0in /  0.0mm 0 W/m2
02:41 45.5 °F /  7.5 °C 43 °F /  6.1 °C 29.7in /  1007.1hPa SW 2.9mph /  4.7km/h 4mph /  6.4km/h 91% 0in /  0.0mm 0 W/m2
02:46 45.3 °F /  7.4 °C 42.8 °F /  6 °C 29.7in /  1007.1hPa WNW 0.9mph /  1.4km/h 4mph /  6.4km/h 91% 0in /  0.0mm 0 W/m2
02:51 45.3 °F /  7.4 °C 42.8 °F /  6 °C 29.8in /  1007.5hPa West 0.9mph /  1.4km/h 3mph /  4.8km/h 91% 0in /  0.0mm 0 W/m2
02:56 45.1 °F /  7.3 °C 42.6 °F /  5.9 °C 29.8in /  1007.5hPa WNW 0.9mph /  1.4km/h 2mph /  3.2km/h 91% 0in /  0.0mm 0 W/m2
03:01 45 °F /  7.2 °C 42.4 °F /  5.8 °C 29.8in /  1007.5hPa SSW 2mph /  3.2km/h 6mph /  9.7km/h 91% 0in /  0.0mm 0 W/m2
03:06 44.8 °F /  7.1 °C 42.3 °F /  5.7 °C 29.8in /  1007.5hPa WSW 0.9mph /  1.4km/h 7mph /  11.3km/h 91% 0in /  0.0mm 0 W/m2
03:11 44.8 °F /  7.1 °C 42.3 °F /  5.7 °C 29.8in /  1007.5hPa WNW 0.9mph /  1.4km/h 2mph /  3.2km/h 91% 0in /  0.0mm 0 W/m2
03:16 44.4 °F /  6.9 °C 41.9 °F /  5.5 °C 29.8in /  1007.5hPa SW 2.9mph /  4.7km/h 7mph /  11.3km/h 91% 0in /  0.0mm 0 W/m2
03:21 44.4 °F /  6.9 °C 42.3 °F /  5.7 °C 29.8in /  1007.5hPa SW 2mph /  3.2km/h 4mph /  6.4km/h 92% 0in /  0.0mm 0 W/m2
03:27 44.2 °F /  6.8 °C 42.1 °F /  5.6 °C 29.8in /  1007.5hPa ESE 0.9mph /  1.4km/h 7mph /  11.3km/h 92% 0in /  0.0mm 0 W/m2
03:32 44.2 °F /  6.8 °C 41.7 °F /  5.4 °C 29.8in /  1007.5hPa WNW 2mph /  3.2km/h 4mph /  6.4km/h 91% 0in /  0.0mm 0 W/m2
03:37 44.1 °F /  6.7 °C 41.5 °F /  5.3 °C 29.8in /  1007.5hPa SSW 0.9mph /  1.4km/h 4mph /  6.4km/h 91% 0in /  0.0mm 0 W/m2
03:42 44.1 °F /  6.7 °C 41.5 °F /  5.3 °C 29.8in /  1007.8hPa WSW 4.9mph /  7.9km/h 6mph /  9.7km/h 91% 0in /  0.0mm 0 W/m2
03:47 44.1 °F /  6.7 °C 41.5 °F /  5.3 °C 29.8in /  1007.5hPa WSW 4mph /  6.4km/h 5mph /  8km/h 91% 0in /  0.0mm 0 W/m2
03:52 44.2 °F /  6.8 °C 41.7 °F /  5.4 °C 29.8in /  1007.8hPa WSW 4mph /  6.4km/h 5mph /  8km/h 91% 0in /  0.0mm 0 W/m2
03:57 44.2 °F /  6.8 °C 41.7 °F /  5.4 °C 29.8in /  1007.8hPa South 2.9mph /  4.7km/h 8mph /  12.9km/h 91% 0in /  0.0mm 0 W/m2
04:02 44.2 °F /  6.8 °C 41.5 °F /  5.3 °C 29.8in /  1007.8hPa WSW 4.9mph /  7.9km/h 5mph /  8km/h 90% 0in /  0.0mm 0 W/m2
04:07 44.1 °F /  6.7 °C 41.4 °F /  5.2 °C 29.8in /  1007.8hPa West 4mph /  6.4km/h 6mph /  9.7km/h 90% 0in /  0.0mm 0 W/m2
04:12 44.1 °F /  6.7 °C 41.4 °F /  5.2 °C 29.8in /  1007.8hPa West 4mph /  6.4km/h 4mph /  6.4km/h 90% 0in /  0.0mm 0 W/m2
04:17 44.1 °F /  6.7 °C 41.4 °F /  5.2 °C 29.8in /  1007.8hPa WSW 4mph /  6.4km/h 4mph /  6.4km/h 90% 0in /  0.0mm 0 W/m2
04:22 43.9 °F /  6.6 °C 41.2 °F /  5.1 °C 29.8in /  1007.8hPa West 2.9mph /  4.7km/h 3mph /  4.8km/h 90% 0in /  0.0mm 0 W/m2
04:27 43.7 °F /  6.5 °C 41 °F /  5 °C 29.8in /  1007.8hPa WNW 2.9mph /  4.7km/h 5mph /  8km/h 90% 0in /  0.0mm 0 W/m2
04:32 43.7 °F /  6.5 °C 41 °F /  5 °C 29.8in /  1008.1hPa West 2mph /  3.2km/h 3mph /  4.8km/h 90% 0in /  0.0mm 0 W/m2
04:37 43.5 °F /  6.4 °C 40.8 °F /  4.9 °C 29.8in /  1008.1hPa WSW 2mph /  3.2km/h 4mph /  6.4km/h 90% 0in /  0.0mm 0 W/m2
04:42 43.5 °F /  6.4 °C 40.8 °F /  4.9 °C 29.8in /  1008.1hPa West 0.9mph /  1.4km/h 2mph /  3.2km/h 90% 0in /  0.0mm 0 W/m2
04:47 43.3 °F /  6.3 °C 40.6 °F /  4.8 °C 29.8in /  1008.1hPa Calm   2mph /  3.2km/h 90% 0in /  0.0mm 0 W/m2
04:52 43.2 °F /  6.2 °C 40.5 °F /  4.7 °C 29.8in /  1008.1hPa SW 2.9mph /  4.7km/h 9mph /  14.5km/h 90% 0in /  0.0mm 0 W/m2
04:58 43 °F /  6.1 °C 40.3 °F /  4.6 °C 29.8in /  1008.5hPa West 0.9mph /  1.4km/h 3mph /  4.8km/h 90% 0in /  0.0mm 0 W/m2
05:03 43 °F /  6.1 °C 40.5 °F /  4.7 °C 29.8in /  1008.5hPa SSW 0.9mph /  1.4km/h 3mph /  4.8km/h 91% 0.01in /  0.2mm 0 W/m2
05:08 42.8 °F /  6 °C 40.3 °F /  4.6 °C 29.8in /  1008.5hPa NW 2mph /  3.2km/h 3mph /  4.8km/h 91% 0.01in /  0.2mm 0 W/m2
05:13 42.6 °F /  5.9 °C 40.1 °F /  4.5 °C 29.8in /  1008.5hPa West 2.9mph /  4.7km/h 4mph /  6.4km/h 91% 0.01in /  0.2mm 0 W/m2
05:18 42.6 °F /  5.9 °C 40.1 °F /  4.5 °C 29.8in /  1008.5hPa WSW 2mph /  3.2km/h 2mph /  3.2km/h 91% 0.01in /  0.2mm 0 W/m2
05:23 42.4 °F /  5.8 °C 39.9 °F /  4.4 °C 29.8in /  1008.5hPa SW 0.9mph /  1.4km/h 4mph /  6.4km/h 91% 0.01in /  0.2mm 0 W/m2
05:28 42.4 °F /  5.8 °C 39.9 °F /  4.4 °C 29.8in /  1008.5hPa Calm   3mph /  4.8km/h 91% 0.01in /  0.2mm 0 W/m2
05:33 42.6 °F /  5.9 °C 40.5 °F /  4.7 °C 29.8in /  1008.8hPa Calm   2mph /  3.2km/h 92% 0.01in /  0.2mm 0 W/m2
05:38 42.6 °F /  5.9 °C 40.5 °F /  4.7 °C 29.8in /  1008.8hPa WSW 2.9mph /  4.7km/h 7mph /  11.3km/h 92% 0.01in /  0.2mm 0 W/m2
05:43 43 °F /  6.1 °C 40.8 °F /  4.9 °C 29.8in /  1008.8hPa WSW 0.9mph /  1.4km/h 2mph /  3.2km/h 92% 0.01in /  0.2mm 0 W/m2
05:48 43 °F /  6.1 °C 40.8 °F /  4.9 °C 29.8in /  1008.8hPa West 0.9mph /  1.4km/h 3mph /  4.8km/h 92% 0.01in /  0.2mm 0 W/m2
05:53 43.2 °F /  6.2 °C 40.6 °F /  4.8 °C 29.8in /  1008.8hPa West 0.9mph /  1.4km/h 2mph /  3.2km/h 91% 0.01in /  0.2mm 0 W/m2
05:58 43.2 °F /  6.2 °C 40.6 °F /  4.8 °C 29.8in /  1008.8hPa WSW 0.9mph /  1.4km/h 2mph /  3.2km/h 91% 0.01in /  0.2mm 0 W/m2
06:03 43.2 °F /  6.2 °C 40.6 °F /  4.8 °C 29.8in /  1008.8hPa Calm   1mph /  1.6km/h 91% 0in /  0.0mm 0 W/m2
06:08 43.2 °F /  6.2 °C 40.6 °F /  4.8 °C 29.8in /  1008.8hPa WNW 0.9mph /  1.4km/h 1mph /  1.6km/h 91% 0in /  0.0mm 0 W/m2
06:13 43.2 °F /  6.2 °C 40.6 °F /  4.8 °C 29.8in /  1008.8hPa WNW 2mph /  3.2km/h 2mph /  3.2km/h 91% 0in /  0.0mm 0 W/m2
06:18 43.2 °F /  6.2 °C 40.6 °F /  4.8 °C 29.8in /  1008.8hPa West 0.9mph /  1.4km/h 1mph /  1.6km/h 91% 0in /  0.0mm 5 W/m2
06:23 43.2 °F /  6.2 °C 40.6 °F /  4.8 °C 29.8in /  1008.8hPa NNW 0.9mph /  1.4km/h 1mph /  1.6km/h 91% 0in /  0.0mm 7 W/m2
06:28 43.2 °F /  6.2 °C 40.6 °F /  4.8 °C 29.8in /  1008.8hPa Calm   1mph /  1.6km/h 91% 0in /  0.0mm 9 W/m2
06:33 43.2 °F /  6.2 °C 41 °F /  5 °C 29.8in /  1008.8hPa NNW 0.9mph /  1.4km/h 2mph /  3.2km/h 92% 0in /  0.0mm 21 W/m2
06:38 43.2 °F /  6.2 °C 41 °F /  5 °C 29.8in /  1008.8hPa SW 0.9mph /  1.4km/h 7mph /  11.3km/h 92% 0in /  0.0mm 39 W/m2
06:43 43.2 °F /  6.2 °C 41 °F /  5 °C 29.8in /  1008.8hPa SSW 0.9mph /  1.4km/h 3mph /  4.8km/h 92% 0in /  0.0mm 23 W/m2
06:48 43.2 °F /  6.2 °C 41 °F /  5 °C 29.8in /  1009.1hPa WSW 2mph /  3.2km/h 4mph /  6.4km/h 92% 0in /  0.0mm 26 W/m2
06:54 43.2 °F /  6.2 °C 41 °F /  5 °C 29.8in /  1009.1hPa SSW 0.9mph /  1.4km/h 3mph /  4.8km/h 92% 0in /  0.0mm 21 W/m2
06:59 43.2 °F /  6.2 °C 41 °F /  5 °C 29.8in /  1009.1hPa Calm   1mph /  1.6km/h 92% 0in /  0.0mm 19 W/m2
07:04 43.2 °F /  6.2 °C 41 °F /  5 °C 29.8in /  1009.1hPa WNW 2.9mph /  4.7km/h 3mph /  4.8km/h 92% 0in /  0.0mm 35 W/m2
07:09 43.2 °F /  6.2 °C 41 °F /  5 °C 29.8in /  1009.1hPa West 0.9mph /  1.4km/h 3mph /  4.8km/h 92% 0in /  0.0mm 33 W/m2
07:14 43.2 °F /  6.2 °C 41 °F /  5 °C 29.8in /  1009.1hPa SSW 0.9mph /  1.4km/h 5mph /  8km/h 92% 0in /  0.0mm 35 W/m2
07:19 43.2 °F /  6.2 °C 41 °F /  5 °C 29.8in /  1009.1hPa West 0.9mph /  1.4km/h 2mph /  3.2km/h 92% 0in /  0.0mm 49 W/m2
07:24 43.2 °F /  6.2 °C 41 °F /  5 °C 29.8in /  1009.5hPa West 0.9mph /  1.4km/h 3mph /  4.8km/h 92% 0in /  0.0mm 91 W/m2
07:29 43.3 °F /  6.3 °C 41.2 °F /  5.1 °C 29.8in /  1009.1hPa WNW 2mph /  3.2km/h 2mph /  3.2km/h 92% 0in /  0.0mm 51 W/m2
07:34 43.3 °F /  6.3 °C 41.2 °F /  5.1 °C 29.8in /  1009.5hPa WNW 2mph /  3.2km/h 8mph /  12.9km/h 92% 0in /  0.0mm 93 W/m2
07:39 43.3 °F /  6.3 °C 41.2 °F /  5.1 °C 29.8in /  1009.5hPa WNW 0.9mph /  1.4km/h 1mph /  1.6km/h 92% 0in /  0.0mm 132 W/m2
07:44 43.7 °F /  6.5 °C 41.5 °F /  5.3 °C 29.8in /  1009.5hPa Calm   5mph /  8km/h 92% 0in /  0.0mm 67 W/m2
07:49 43.9 °F /  6.6 °C 41.7 °F /  5.4 °C 29.8in /  1009.5hPa WSW 0.9mph /  1.4km/h 1mph /  1.6km/h 92% 0in /  0.0mm 81 W/m2
07:54 44.1 °F /  6.7 °C 41.5 °F /  5.3 °C 29.8in /  1009.5hPa West 4mph /  6.4km/h 7mph /  11.3km/h 91% 0in /  0.0mm 72 W/m2
07:59 44.2 °F /  6.8 °C 41.7 °F /  5.4 °C 29.8in /  1009.5hPa SE 0.9mph /  1.4km/h 3mph /  4.8km/h 91% 0in /  0.0mm 120 W/m2
08:04 44.4 °F /  6.9 °C 41.9 °F /  5.5 °C 29.8in /  1009.5hPa WNW 7mph /  11.3km/h 7mph /  11.3km/h 91% 0in /  0.0mm 105 W/m2
08:09 44.8 °F /  7.1 °C 42.3 °F /  5.7 °C 29.8in /  1009.8hPa SW 2.9mph /  4.7km/h 4mph /  6.4km/h 91% 0in /  0.0mm 294 W/m2
08:14 45.3 °F /  7.4 °C 42.8 °F /  6 °C 29.8in /  1009.8hPa WNW 2mph /  3.2km/h 10mph /  16.1km/h 91% 0in /  0.0mm 325 W/m2
08:19 45.7 °F /  7.6 °C 43 °F /  6.1 °C 29.8in /  1009.8hPa West 6mph /  9.7km/h 6mph /  9.7km/h 90% 0in /  0.0mm 174 W/m2
08:24 45.9 °F /  7.7 °C 42.8 °F /  6 °C 29.8in /  1009.8hPa West 4mph /  6.4km/h 13mph /  20.9km/h 89% 0in /  0.0mm 97 W/m2
08:29 45.9 °F /  7.7 °C 42.8 °F /  6 °C 29.8in /  1009.8hPa WNW 2.9mph /  4.7km/h 8mph /  12.9km/h 89% 0in /  0.0mm 179 W/m2
08:34 45.9 °F /  7.7 °C 42.8 °F /  6 °C 29.8in /  1009.8hPa SW 2mph /  3.2km/h 13mph /  20.9km/h 89% 0in /  0.0mm 113 W/m2
08:39 45.9 °F /  7.7 °C 42.8 °F /  6 °C 29.8in /  1009.8hPa West 2mph /  3.2km/h 4mph /  6.4km/h 89% 0in /  0.0mm 109 W/m2
08:44 45.9 °F /  7.7 °C 42.4 °F /  5.8 °C 29.8in /  1009.8hPa West 2mph /  3.2km/h 3mph /  4.8km/h 88% 0in /  0.0mm 121 W/m2
08:49 46 °F /  7.8 °C 43 °F /  6.1 °C 29.8in /  1009.8hPa Calm   3mph /  4.8km/h 89% 0in /  0.0mm 353 W/m2
08:55 46 °F /  7.8 °C 43 °F /  6.1 °C 29.8in /  1009.5hPa NW 2mph /  3.2km/h 4mph /  6.4km/h 89% 0in /  0.0mm 376 W/m2
09:00 46.6 °F /  8.1 °C 43.5 °F /  6.4 °C 29.8in /  1009.8hPa Calm   2mph /  3.2km/h 89% 0in /  0.0mm 434 W/m2
09:05 47.1 °F /  8.4 °C 44.1 °F /  6.7 °C 29.8in /  1009.8hPa West 2mph /  3.2km/h 8mph /  12.9km/h 89% 0in /  0.0mm 410 W/m2
09:10 47.5 °F /  8.6 °C 44.1 °F /  6.7 °C 29.8in /  1009.8hPa West 2mph /  3.2km/h 5mph /  8km/h 88% 0in /  0.0mm 466 W/m2
09:15 47.8 °F /  8.8 °C 44.4 °F /  6.9 °C 29.8in /  1009.8hPa WSW 4mph /  6.4km/h 5mph /  8km/h 88% 0in /  0.0mm 489 W/m2
09:20 48 °F /  8.9 °C 44.1 °F /  6.7 °C 29.8in /  1009.8hPa NW 8.1mph /  13km/h 11mph /  17.7km/h 86% 0in /  0.0mm 325 W/m2
09:25 48 °F /  8.9 °C 44.1 °F /  6.7 °C 29.8in /  1009.8hPa WNW 2.9mph /  4.7km/h 6mph /  9.7km/h 86% 0in /  0.0mm 322 W/m2
09:30 47.8 °F /  8.8 °C 43.9 °F /  6.6 °C 29.8in /  1010.2hPa WSW 2.9mph /  4.7km/h 6mph /  9.7km/h 86% 0in /  0.0mm 278 W/m2
09:35 48.2 °F /  9 °C 44.6 °F /  7 °C 29.8in /  1010.2hPa West 6mph /  9.7km/h 8mph /  12.9km/h 87% 0in /  0.0mm 230 W/m2
09:40 48.2 °F /  9 °C 44.2 °F /  6.8 °C 29.8in /  1010.2hPa West 2.9mph /  4.7km/h 9mph /  14.5km/h 86% 0in /  0.0mm 190 W/m2
09:45 48 °F /  8.9 °C 44.1 °F /  6.7 °C 29.8in /  1010.2hPa WNW 2mph /  3.2km/h 6mph /  9.7km/h 86% 0in /  0.0mm 207 W/m2
09:50 48 °F /  8.9 °C 44.4 °F /  6.9 °C 29.8in /  1010.2hPa West 0.9mph /  1.4km/h 2mph /  3.2km/h 87% 0in /  0.0mm 244 W/m2
09:55 48.6 °F /  9.2 °C 44.6 °F /  7 °C 29.8in /  1010.2hPa NW 4mph /  6.4km/h 8mph /  12.9km/h 86% 0in /  0.0mm 301 W/m2
10:00 48.9 °F /  9.4 °C 44.6 °F /  7 °C 29.8in /  1010.2hPa West 4mph /  6.4km/h 6mph /  9.7km/h 85% 0in /  0.0mm 295 W/m2
10:05 49.6 °F /  9.8 °C 45.3 °F /  7.4 °C 29.8in /  1010.2hPa WNW 4mph /  6.4km/h 5mph /  8km/h 85% 0in /  0.0mm 346 W/m2
10:11 50 °F /  10 °C 45.3 °F /  7.4 °C 29.8in /  1010.2hPa NW 2.9mph /  4.7km/h 7mph /  11.3km/h 84% 0in /  0.0mm 330 W/m2
10:16 50.2 °F /  10.1 °C 45 °F /  7.2 °C 29.8in /  1010.2hPa West 6mph /  9.7km/h 15mph /  24.1km/h 82% 0in /  0.0mm 675 W/m2
10:21 50.5 °F /  10.3 °C 45.5 °F /  7.5 °C 29.8in /  1010.2hPa NW 2.9mph /  4.7km/h 9mph /  14.5km/h 83% 0in /  0.0mm 777 W/m2
10:26 51.1 °F /  10.6 °C 45.5 °F /  7.5 °C 29.8in /  1010.2hPa WNW 2.9mph /  4.7km/h 15mph /  24.1km/h 81% 0in /  0.0mm 687 W/m2
10:31 51.3 °F /  10.7 °C 45 °F /  7.2 °C 29.8in /  1010.2hPa WNW 2.9mph /  4.7km/h 7mph /  11.3km/h 79% 0in /  0.0mm 271 W/m2
10:36 51.3 °F /  10.7 °C 45 °F /  7.2 °C 29.8in /  1010.2hPa NW 2mph /  3.2km/h 9mph /  14.5km/h 79% 0in /  0.0mm 199 W/m2
10:41 51.3 °F /  10.7 °C 44.6 °F /  7 °C 29.8in /  1010.2hPa WNW 8.9mph /  14.3km/h 10mph /  16.1km/h 78% 0in /  0.0mm 294 W/m2
10:46 51.3 °F /  10.7 °C 44.2 °F /  6.8 °C 29.8in /  1010.2hPa NW 8.1mph /  13km/h 8mph /  12.9km/h 77% 0in /  0.0mm 123 W/m2
10:51 50.7 °F /  10.4 °C 43.7 °F /  6.5 °C 29.8in /  1010.2hPa WSW 6mph /  9.7km/h 9mph /  14.5km/h 77% 0in /  0.0mm 118 W/m2
10:56 50.5 °F /  10.3 °C 44.2 °F /  6.8 °C 29.8in /  1010.2hPa WNW 2mph /  3.2km/h 8mph /  12.9km/h 79% 0in /  0.0mm 144 W/m2
11:01 50.7 °F /  10.4 °C 44.1 °F /  6.7 °C 29.8in /  1010.2hPa West 2.9mph /  4.7km/h 8mph /  12.9km/h 78% 0in /  0.0mm 105 W/m2
11:06 51.1 °F /  10.6 °C 44.4 °F /  6.9 °C 29.8in /  1010.2hPa West 2.9mph /  4.7km/h 7mph /  11.3km/h 78% 0in /  0.0mm 190 W/m2
11:11 51.3 °F /  10.7 °C 44.6 °F /  7 °C 29.8in /  1010.2hPa West 8.1mph /  13km/h 8mph /  12.9km/h 78% 0in /  0.0mm 237 W/m2
11:16 51.4 °F /  10.8 °C 44.1 °F /  6.7 °C 29.8in /  1010.2hPa ESE 2.9mph /  4.7km/h 6mph /  9.7km/h 76% 0in /  0.0mm 318 W/m2
11:21 51.8 °F /  11 °C 43.7 °F /  6.5 °C 29.8in /  1010.2hPa WNW 6.9mph /  11.1km/h 13mph /  20.9km/h 74% 0in /  0.0mm 838 W/m2
11:26 52.5 °F /  11.4 °C 44.1 °F /  6.7 °C 29.8in /  1010.2hPa South 4mph /  6.4km/h 8mph /  12.9km/h 73% 0in /  0.0mm 884 W/m2
11:31 52.9 °F /  11.6 °C 43.3 °F /  6.3 °C 29.8in /  1010.2hPa WSW 6.9mph /  11.1km/h 7mph /  11.3km/h 70% 0in /  0.0mm 798 W/m2
11:36 53.4 °F /  11.9 °C 43.9 °F /  6.6 °C 29.8in /  1009.8hPa WNW 4mph /  6.4km/h 6mph /  9.7km/h 70% 0in /  0.0mm 844 W/m2
11:41 53.8 °F /  12.1 °C 43.5 °F /  6.4 °C 29.8in /  1010.2hPa WNW 2.9mph /  4.7km/h 13mph /  20.9km/h 68% 0in /  0.0mm 831 W/m2
11:46 53.8 °F /  12.1 °C 42.6 °F /  5.9 °C 29.8in /  1010.2hPa West 6mph /  9.7km/h 15mph /  24.1km/h 66% 0in /  0.0mm 816 W/m2
11:51 54 °F /  12.2 °C 42.1 °F /  5.6 °C 29.8in /  1010.2hPa West 6.9mph /  11.1km/h 10mph /  16.1km/h 64% 0in /  0.0mm 809 W/m2
11:56 54.5 °F /  12.5 °C 42.1 °F /  5.6 °C 29.8in /  1010.2hPa West 13mph /  20.9km/h 15mph /  24.1km/h 63% 0in /  0.0mm 830 W/m2
12:01 54.7 °F /  12.6 °C 41.5 °F /  5.3 °C 29.8in /  1009.8hPa WSW 8.1mph /  13km/h 16mph /  25.7km/h 61% 0in /  0.0mm 911 W/m2
12:06 55 °F /  12.8 °C 42.3 °F /  5.7 °C 29.8in /  1009.8hPa WNW 4mph /  6.4km/h 11mph /  17.7km/h 62% 0in /  0.0mm 939 W/m2
12:11 55 °F /  12.8 °C 42.3 °F /  5.7 °C 29.8in /  1009.8hPa NW 2mph /  3.2km/h 15mph /  24.1km/h 62% 0in /  0.0mm 267 W/m2
12:16 55 °F /  12.8 °C 42.6 °F /  5.9 °C 29.8in /  1010.2hPa NW 8.1mph /  13km/h 12mph /  19.3km/h 63% 0in /  0.0mm 912 W/m2
12:22 55.2 °F /  12.9 °C 42.4 °F /  5.8 °C 29.8in /  1009.8hPa WSW 4.9mph /  7.9km/h 15mph /  24.1km/h 62% 0in /  0.0mm 396 W/m2
12:27 55.2 °F /  12.9 °C 43.3 °F /  6.3 °C 29.8in /  1009.8hPa West 4mph /  6.4km/h 10mph /  16.1km/h 64% 0in /  0.0mm 271 W/m2
12:32 55.4 °F /  13 °C 41.7 °F /  5.4 °C 29.8in /  1009.8hPa NW 6mph /  9.7km/h 14mph /  22.5km/h 60% 0in /  0.0mm 346 W/m2
12:37 55 °F /  12.8 °C 41.9 °F /  5.5 °C 29.8in /  1009.8hPa West 4mph /  6.4km/h 9mph /  14.5km/h 61% 0in /  0.0mm 921 W/m2
12:42 55 °F /  12.8 °C 41.9 °F /  5.5 °C 29.8in /  1010.2hPa SW 4.9mph /  7.9km/h 10mph /  16.1km/h 61% 0in /  0.0mm 327 W/m2
12:47 55.6 °F /  13.1 °C 43.2 °F /  6.2 °C 29.8in /  1009.8hPa NW 14.1mph /  22.7km/h 14mph /  22.5km/h 63% 0in /  0.0mm 911 W/m2
12:52 55.6 °F /  13.1 °C 42.8 °F /  6 °C 29.8in /  1009.8hPa NW 6.9mph /  11.1km/h 11mph /  17.7km/h 62% 0in /  0.0mm 851 W/m2
12:57 55.8 °F /  13.2 °C 43 °F /  6.1 °C 29.8in /  1009.8hPa NW 19mph /  30.6km/h 19mph /  30.6km/h 62% 0in /  0.0mm 914 W/m2
13:03 55.8 °F /  13.2 °C 42.4 °F /  5.8 °C 29.8in /  1009.8hPa NW 10.1mph /  16.3km/h 16mph /  25.7km/h 61% 0in /  0.0mm 278 W/m2
13:08 55.8 °F /  13.2 °C 42.4 °F /  5.8 °C 29.8in /  1009.8hPa WNW 10.1mph /  16.3km/h 14mph /  22.5km/h 61% 0in /  0.0mm 403 W/m2
13:13 56.1 °F /  13.4 °C 42.8 °F /  6 °C 29.8in /  1009.5hPa NNW 6mph /  9.7km/h 11mph /  17.7km/h 61% 0in /  0.0mm 279 W/m2
13:18 56.5 °F /  13.6 °C 42.8 °F /  6 °C 29.8in /  1009.8hPa NW 4.9mph /  7.9km/h 8mph /  12.9km/h 60% 0in /  0.0mm 186 W/m2
13:23 55.9 °F /  13.3 °C 41.9 °F /  5.5 °C 29.8in /  1010.2hPa WNW 6.9mph /  11.1km/h 19mph /  30.6km/h 59% 0in /  0.0mm 257 W/m2
13:28 55.6 °F /  13.1 °C 41.9 °F /  5.5 °C 29.8in /  1010.2hPa SW 4mph /  6.4km/h 11mph /  17.7km/h 60% 0in /  0.0mm 900 W/m2
13:33 55.9 °F /  13.3 °C 42.6 °F /  5.9 °C 29.8in /  1010.2hPa WNW 4.9mph /  7.9km/h 19mph /  30.6km/h 61% 0in /  0.0mm 1020 W/m2
13:38 56.3 °F /  13.5 °C 43 °F /  6.1 °C 29.8in /  1010.2hPa WSW 8.9mph /  14.3km/h 12mph /  19.3km/h 61% 0in /  0.0mm 962 W/m2
13:43 56.3 °F /  13.5 °C 42.6 °F /  5.9 °C 29.8in /  1010.2hPa WSW 4.9mph /  7.9km/h 11mph /  17.7km/h 60% 0in /  0.0mm 432 W/m2
13:48 55.9 °F /  13.3 °C 42.3 °F /  5.7 °C 29.8in /  1010.2hPa NW 4.9mph /  7.9km/h 16mph /  25.7km/h 60% 0in /  0.0mm 527 W/m2
13:53 55 °F /  12.8 °C 43.2 °F /  6.2 °C 29.9in /  1010.8hPa WSW 13mph /  20.9km/h 15mph /  24.1km/h 64% 0in /  0.0mm 109 W/m2
13:58 52.5 °F /  11.4 °C 42.3 °F /  5.7 °C 29.9in /  1010.8hPa WSW 4.9mph /  7.9km/h 12mph /  19.3km/h 68% 0in /  0.0mm 160 W/m2
14:03 51.3 °F /  10.7 °C 43.3 °F /  6.3 °C 29.9in /  1010.8hPa WNW 11mph /  17.7km/h 15mph /  24.1km/h 74% 0in /  0.0mm 882 W/m2
14:08 51.4 °F /  10.8 °C 42.8 °F /  6 °C 29.9in /  1010.8hPa West 12.1mph /  19.5km/h 17mph /  27.4km/h 72% 0in /  0.0mm 823 W/m2
14:13 52 °F /  11.1 °C 42.8 °F /  6 °C 29.9in /  1010.8hPa WNW 8.1mph /  13km/h 19mph /  30.6km/h 71% 0in /  0.0mm 1011 W/m2
14:18 52 °F /  11.1 °C 42.1 °F /  5.6 °C 29.9in /  1010.8hPa NNW 11mph /  17.7km/h 15mph /  24.1km/h 69% 0in /  0.0mm 318 W/m2
14:23 52.3 °F /  11.3 °C 42.8 °F /  6 °C 29.9in /  1010.8hPa West 11mph /  17.7km/h 19mph /  30.6km/h 70% 0in /  0.0mm 1090 W/m2
14:28 53.2 °F /  11.8 °C 43.3 °F /  6.3 °C 29.9in /  1010.8hPa North 6mph /  9.7km/h 10mph /  16.1km/h 69% 0in /  0.0mm 367 W/m2
14:33 53.2 °F /  11.8 °C 42.3 °F /  5.7 °C 29.9in /  1010.8hPa WSW 10.1mph /  16.3km/h 14mph /  22.5km/h 66% 0in /  0.0mm 292 W/m2
14:38 53.1 °F /  11.7 °C 42.4 °F /  5.8 °C 29.9in /  1010.8hPa WNW 8.9mph /  14.3km/h 15mph /  24.1km/h 67% 0in /  0.0mm 376 W/m2
14:43 53.2 °F /  11.8 °C 42.6 °F /  5.9 °C 29.9in /  1010.8hPa WSW 10.1mph /  16.3km/h 13mph /  20.9km/h 67% 0in /  0.0mm 874 W/m2
14:48 53.6 °F /  12 °C 43 °F /  6.1 °C 29.9in /  1010.8hPa NW 11mph /  17.7km/h 13mph /  20.9km/h 67% 0in /  0.0mm 374 W/m2
14:53 53.6 °F /  12 °C 42.4 °F /  5.8 °C 29.9in /  1011.2hPa WNW 10.1mph /  16.3km/h 15mph /  24.1km/h 66% 0in /  0.0mm 636 W/m2
14:58 53.1 °F /  11.7 °C 42.1 °F /  5.6 °C 29.9in /  1011.5hPa North 12.1mph /  19.5km/h 19mph /  30.6km/h 66% 0in /  0.0mm 330 W/m2
15:03 52.2 °F /  11.2 °C 41.9 °F /  5.5 °C 29.9in /  1011.9hPa West 11mph /  17.7km/h 15mph /  24.1km/h 68% 0in /  0.0mm 262 W/m2
15:08 51.4 °F /  10.8 °C 42.4 °F /  5.8 °C 29.9in /  1011.9hPa WSW 10.1mph /  16.3km/h 12mph /  19.3km/h 71% 0in /  0.0mm 232 W/m2
15:13 50.7 °F /  10.4 °C 42.4 °F /  5.8 °C 29.9in /  1011.5hPa WSW 6.9mph /  11.1km/h 10mph /  16.1km/h 73% 0in /  0.0mm 260 W/m2
15:18 50.5 °F /  10.3 °C 42.3 °F /  5.7 °C 29.9in /  1011.5hPa WNW 4mph /  6.4km/h 10mph /  16.1km/h 73% 0in /  0.0mm 253 W/m2
15:23 50.7 °F /  10.4 °C 42.8 °F /  6 °C 29.9in /  1011.5hPa NW 6.9mph /  11.1km/h 10mph /  16.1km/h 74% 0in /  0.0mm 432 W/m2
15:28 51.3 °F /  10.7 °C 43 °F /  6.1 °C 29.9in /  1011.2hPa WSW 8.1mph /  13km/h 15mph /  24.1km/h 73% 0in /  0.0mm 301 W/m2
15:33 51.4 °F /  10.8 °C 42.4 °F /  5.8 °C 29.9in /  1011.2hPa WNW 4.9mph /  7.9km/h 9mph /  14.5km/h 71% 0in /  0.0mm 671 W/m2
15:38 52.3 °F /  11.3 °C 42.8 °F /  6 °C 29.9in /  1011.2hPa NW 12.1mph /  19.5km/h 15mph /  24.1km/h 70% 0in /  0.0mm 731 W/m2
15:43 52.7 °F /  11.5 °C 42.1 °F /  5.6 °C 29.9in /  1011.2hPa WSW 12.1mph /  19.5km/h 15mph /  24.1km/h 67% 0in /  0.0mm 693 W/m2
15:48 53.2 °F /  11.8 °C 41.7 °F /  5.4 °C 29.9in /  1011.2hPa West 13mph /  20.9km/h 13mph /  20.9km/h 65% 0in /  0.0mm 680 W/m2
15:53 54 °F /  12.2 °C 42.4 °F /  5.8 °C 29.9in /  1010.8hPa WNW 4.9mph /  7.9km/h 15mph /  24.1km/h 65% 0in /  0.0mm 675 W/m2
15:58 54.7 °F /  12.6 °C 42.8 °F /  6 °C 29.9in /  1011.2hPa WNW 6.9mph /  11.1km/h 11mph /  17.7km/h 64% 0in /  0.0mm 668 W/m2
16:03 55 °F /  12.8 °C 42.6 °F /  5.9 °C 29.9in /  1011.2hPa WSW 8.1mph /  13km/h 12mph /  19.3km/h 63% 0in /  0.0mm 661 W/m2
16:08 55.4 °F /  13 °C 42.6 °F /  5.9 °C 29.9in /  1010.8hPa NW 4.9mph /  7.9km/h 8mph /  12.9km/h 62% 0in /  0.0mm 650 W/m2
16:13 55.8 °F /  13.2 °C 41.7 °F /  5.4 °C 29.9in /  1010.8hPa WNW 12.1mph /  19.5km/h 12mph /  19.3km/h 59% 0in /  0.0mm 643 W/m2
16:18 55.8 °F /  13.2 °C 42.1 °F /  5.6 °C 29.9in /  1011.2hPa West 2.9mph /  4.7km/h 12mph /  19.3km/h 60% 0in /  0.0mm 636 W/m2
16:23 56.3 °F /  13.5 °C 41.7 °F /  5.4 °C 29.9in /  1011.2hPa West 2.9mph /  4.7km/h 15mph /  24.1km/h 58% 0in /  0.0mm 654 W/m2
16:28 56.1 °F /  13.4 °C 41.5 °F /  5.3 °C 29.9in /  1011.2hPa West 10.1mph /  16.3km/h 12mph /  19.3km/h 58% 0in /  0.0mm 698 W/m2
16:33 55.9 °F /  13.3 °C 39.6 °F /  4.2 °C 29.9in /  1011.5hPa WNW 10.1mph /  16.3km/h 17mph /  27.4km/h 54% 0in /  0.0mm 666 W/m2
16:38 55.9 °F /  13.3 °C 40.5 °F /  4.7 °C 29.9in /  1011.5hPa WNW 10.1mph /  16.3km/h 16mph /  25.7km/h 56% 0in /  0.0mm 640 W/m2
16:43 56.1 °F /  13.4 °C 41.2 °F /  5.1 °C 29.9in /  1011.2hPa West 8.1mph /  13km/h 17mph /  27.4km/h 57% 0in /  0.0mm 638 W/m2
16:48 56.7 °F /  13.7 °C 42.1 °F /  5.6 °C 29.9in /  1011.2hPa West 4mph /  6.4km/h 8mph /  12.9km/h 58% 0in /  0.0mm 629 W/m2
16:53 57.2 °F /  14 °C 41.7 °F /  5.4 °C 29.9in /  1011.2hPa West 4mph /  6.4km/h 12mph /  19.3km/h 56% 0in /  0.0mm 585 W/m2
16:58 57 °F /  13.9 °C 41.5 °F /  5.3 °C 29.9in /  1011.5hPa WNW 8.1mph /  13km/h 18mph /  29km/h 56% 0in /  0.0mm 490 W/m2
17:03 56.7 °F /  13.7 °C 40.6 °F /  4.8 °C 29.9in /  1011.5hPa West 8.1mph /  13km/h 12mph /  19.3km/h 55% 0in /  0.0mm 580 W/m2
17:08 57.2 °F /  14 °C 41.7 °F /  5.4 °C 29.9in /  1011.5hPa WNW 8.1mph /  13km/h 18mph /  29km/h 56% 0in /  0.0mm 598 W/m2
17:13 57.4 °F /  14.1 °C 40.8 °F /  4.9 °C 29.9in /  1011.5hPa NW 4mph /  6.4km/h 14mph /  22.5km/h 54% 0in /  0.0mm 575 W/m2
17:18 57 °F /  13.9 °C 41.5 °F /  5.3 °C 29.9in /  1011.5hPa NW 8.9mph /  14.3km/h 11mph /  17.7km/h 56% 0in /  0.0mm 197 W/m2
17:23 56.5 °F /  13.6 °C 41.4 °F /  5.2 °C 29.9in /  1011.5hPa WSW 8.1mph /  13km/h 14mph /  22.5km/h 57% 0in /  0.0mm 207 W/m2
17:28 56.5 °F /  13.6 °C 42.3 °F /  5.7 °C 29.9in /  1011.9hPa West 6.9mph /  11.1km/h 10mph /  16.1km/h 59% 0in /  0.0mm 160 W/m2
17:33 55.4 °F /  13 °C 42.6 °F /  5.9 °C 29.9in /  1011.9hPa West 8.1mph /  13km/h 13mph /  20.9km/h 62% 0in /  0.0mm 193 W/m2
17:38 55.2 °F /  12.9 °C 43.7 °F /  6.5 °C 29.9in /  1011.9hPa NNE 6.9mph /  11.1km/h 7mph /  11.3km/h 65% 0in /  0.0mm 570 W/m2
17:43 55.4 °F /  13 °C 43.9 °F /  6.6 °C 29.9in /  1011.9hPa WNW 8.9mph /  14.3km/h 10mph /  16.1km/h 65% 0in /  0.0mm 592 W/m2
17:48 55.6 °F /  13.1 °C 43.5 °F /  6.4 °C 29.9in /  1011.9hPa NNW 6mph /  9.7km/h 8mph /  12.9km/h 64% 0in /  0.0mm 478 W/m2
17:53 56.1 °F /  13.4 °C 44.1 °F /  6.7 °C 29.9in /  1012.2hPa WNW 2mph /  3.2km/h 6mph /  9.7km/h 64% 0in /  0.0mm 434 W/m2
17:58 56.7 °F /  13.7 °C 44.2 °F /  6.8 °C 29.9in /  1012.2hPa WNW 4.9mph /  7.9km/h 8mph /  12.9km/h 63% 0in /  0.0mm 475 W/m2
18:03 56.5 °F /  13.6 °C 43.7 °F /  6.5 °C 29.9in /  1012.2hPa NW 0.9mph /  1.4km/h 7mph /  11.3km/h 62% 0in /  0.0mm 243 W/m2
18:08 56.1 °F /  13.4 °C 43.3 °F /  6.3 °C 29.9in /  1012.2hPa WNW 2.9mph /  4.7km/h 9mph /  14.5km/h 62% 0in /  0.0mm 439 W/m2
18:13 56.1 °F /  13.4 °C 43.7 °F /  6.5 °C 29.9in /  1012.2hPa NNW 4.9mph /  7.9km/h 5mph /  8km/h 63% 0in /  0.0mm 360 W/m2
18:18 56.5 °F /  13.6 °C 43.7 °F /  6.5 °C 29.9in /  1012.2hPa West 4mph /  6.4km/h 9mph /  14.5km/h 62% 0in /  0.0mm 338 W/m2
18:23 56.1 °F /  13.4 °C 43.3 °F /  6.3 °C 29.9in /  1012.2hPa WSW 6.9mph /  11.1km/h 9mph /  14.5km/h 62% 0in /  0.0mm 329 W/m2
18:28 56.1 °F /  13.4 °C 43.7 °F /  6.5 °C 29.9in /  1012.2hPa WNW 2.9mph /  4.7km/h 4mph /  6.4km/h 63% 0in /  0.0mm 315 W/m2
18:33 56.5 °F /  13.6 °C 44.1 °F /  6.7 °C 29.9in /  1012.2hPa North 4mph /  6.4km/h 6mph /  9.7km/h 63% 0in /  0.0mm 309 W/m2
18:38 56.7 °F /  13.7 °C 43.7 °F /  6.5 °C 29.9in /  1012.2hPa WSW 6.9mph /  11.1km/h 8mph /  12.9km/h 62% 0in /  0.0mm 295 W/m2
18:43 56.5 °F /  13.6 °C 43.7 °F /  6.5 °C 29.9in /  1012.2hPa West 8.1mph /  13km/h 8mph /  12.9km/h 62% 0in /  0.0mm 271 W/m2
18:48 56.3 °F /  13.5 °C 43 °F /  6.1 °C 29.9in /  1012.2hPa West 2.9mph /  4.7km/h 10mph /  16.1km/h 61% 0in /  0.0mm 260 W/m2
18:53 56.7 °F /  13.7 °C 43 °F /  6.1 °C 29.9in /  1012.2hPa WNW 4.9mph /  7.9km/h 6mph /  9.7km/h 60% 0in /  0.0mm 248 W/m2
18:58 56.7 °F /  13.7 °C 42.4 °F /  5.8 °C 29.9in /  1012.5hPa NW 4.9mph /  7.9km/h 8mph /  12.9km/h 59% 0in /  0.0mm 232 W/m2
19:03 56.5 °F /  13.6 °C 42.8 °F /  6 °C 29.9in /  1012.5hPa NW 2.9mph /  4.7km/h 8mph /  12.9km/h 60% 0in /  0.0mm 218 W/m2
19:08 56.7 °F /  13.7 °C 43 °F /  6.1 °C 29.9in /  1012.5hPa WNW 4mph /  6.4km/h 7mph /  11.3km/h 60% 0in /  0.0mm 204 W/m2
19:13 56.7 °F /  13.7 °C 43 °F /  6.1 °C 29.9in /  1012.5hPa West 2mph /  3.2km/h 4mph /  6.4km/h 60% 0in /  0.0mm 188 W/m2
19:18 56.7 °F /  13.7 °C 43 °F /  6.1 °C 29.9in /  1012.5hPa NNW 2mph /  3.2km/h 8mph /  12.9km/h 60% 0in /  0.0mm 171 W/m2
19:23 56.8 °F /  13.8 °C 43.5 °F /  6.4 °C 29.9in /  1012.5hPa WNW 2mph /  3.2km/h 3mph /  4.8km/h 61% 0in /  0.0mm 158 W/m2
19:28 56.8 °F /  13.8 °C 43.5 °F /  6.4 °C 29.9in /  1012.5hPa West 4mph /  6.4km/h 7mph /  11.3km/h 61% 0in /  0.0mm 146 W/m2
19:33 56.5 °F /  13.6 °C 43.7 °F /  6.5 °C 29.9in /  1012.5hPa WNW 2.9mph /  4.7km/h 4mph /  6.4km/h 62% 0in /  0.0mm 128 W/m2
19:38 56.5 °F /  13.6 °C 43.7 °F /  6.5 °C 29.9in /  1012.5hPa WSW 4mph /  6.4km/h 4mph /  6.4km/h 62% 0in /  0.0mm 111 W/m2
19:43 56.5 °F /  13.6 °C 44.1 °F /  6.7 °C 29.9in /  1012.5hPa WSW 2mph /  3.2km/h 3mph /  4.8km/h 63% 0in /  0.0mm 100 W/m2
19:49 56.5 °F /  13.6 °C 43.7 °F /  6.5 °C 29.9in /  1012.5hPa NW 2mph /  3.2km/h 3mph /  4.8km/h 62% 0in /  0.0mm 86 W/m2
19:54 56.3 °F /  13.5 °C 43.9 °F /  6.6 °C 29.9in /  1012.5hPa West 2mph /  3.2km/h 4mph /  6.4km/h 63% 0in /  0.0mm 74 W/m2
19:59 56.1 °F /  13.4 °C 44.1 °F /  6.7 °C 29.9in /  1012.9hPa West 0.9mph /  1.4km/h 3mph /  4.8km/h 64% 0in /  0.0mm 63 W/m2
20:04 56.1 °F /  13.4 °C 44.6 °F /  7 °C 29.9in /  1012.9hPa Calm   4mph /  6.4km/h 65% 0in /  0.0mm 53 W/m2
20:09 55.9 °F /  13.3 °C 44.4 °F /  6.9 °C 29.9in /  1012.9hPa West 0.9mph /  1.4km/h 4mph /  6.4km/h 65% 0in /  0.0mm 37 W/m2
20:14 55.8 °F /  13.2 °C 44.6 °F /  7 °C 29.9in /  1012.9hPa Calm   2mph /  3.2km/h 66% 0in /  0.0mm 19 W/m2
20:19 55.2 °F /  12.9 °C 44.4 °F /  6.9 °C 29.9in /  1012.9hPa West 0.9mph /  1.4km/h 4mph /  6.4km/h 67% 0in /  0.0mm 18 W/m2
20:24 54.7 °F /  12.6 °C 44.8 °F /  7.1 °C 29.9in /  1012.9hPa West 0.9mph /  1.4km/h 2mph /  3.2km/h 69% 0in /  0.0mm 14 W/m2
20:29 54.1 °F /  12.3 °C 44.6 °F /  7 °C 29.9in /  1013.2hPa West 2mph /  3.2km/h 2mph /  3.2km/h 70% 0in /  0.0mm 14 W/m2
20:34 53.4 °F /  11.9 °C 44.6 °F /  7 °C 29.9in /  1013.2hPa West 0.9mph /  1.4km/h 2mph /  3.2km/h 72% 0in /  0.0mm 11 W/m2
20:39 52.9 °F /  11.6 °C 44.4 °F /  6.9 °C 29.9in /  1013.2hPa West 2mph /  3.2km/h 2mph /  3.2km/h 73% 0in /  0.0mm 11 W/m2
20:44 52.3 °F /  11.3 °C 44.2 °F /  6.8 °C 29.9in /  1013.2hPa West 0.9mph /  1.4km/h 1mph /  1.6km/h 74% 0in /  0.0mm 9 W/m2
20:49 51.8 °F /  11 °C 44.4 °F /  6.9 °C 29.9in /  1013.2hPa West 0.9mph /  1.4km/h 1mph /  1.6km/h 76% 0in /  0.0mm 5 W/m2
20:54 51.3 °F /  10.7 °C 44.2 °F /  6.8 °C 29.9in /  1013.2hPa West 0.9mph /  1.4km/h 1mph /  1.6km/h 77% 0in /  0.0mm 5 W/m2
20:59 50.9 °F /  10.5 °C 44.2 °F /  6.8 °C 29.9in /  1013.5hPa Calm   1mph /  1.6km/h 78% 0in /  0.0mm 0 W/m2
21:04 50.4 °F /  10.2 °C 44.1 °F /  6.7 °C 29.9in /  1013.2hPa Calm   2mph /  3.2km/h 79% 0in /  0.0mm 0 W/m2
21:09 50 °F /  10 °C 44.1 °F /  6.7 °C 29.9in /  1013.5hPa West 0.9mph /  1.4km/h 1mph /  1.6km/h 80% 0in /  0.0mm 0 W/m2
21:14 49.6 °F /  9.8 °C 44.1 °F /  6.7 °C 29.9in /  1013.5hPa West 0.9mph /  1.4km/h 2mph /  3.2km/h 81% 0in /  0.0mm 0 W/m2
21:19 49.5 °F /  9.7 °C 44.2 °F /  6.8 °C 29.9in /  1013.5hPa Calm   1mph /  1.6km/h 82% 0in /  0.0mm 0 W/m2
21:24 49.3 °F /  9.6 °C 44.1 °F /  6.7 °C 29.9in /  1013.5hPa West 0.9mph /  1.4km/h 2mph /  3.2km/h 82% 0in /  0.0mm 0 W/m2
21:29 48.9 °F /  9.4 °C 44.1 °F /  6.7 °C 29.9in /  1013.5hPa Calm   1mph /  1.6km/h 83% 0in /  0.0mm 0 W/m2
21:34 48.7 °F /  9.3 °C 43.9 °F /  6.6 °C 29.9in /  1013.9hPa Calm     83% 0in /  0.0mm 0 W/m2
21:39 48.6 °F /  9.2 °C 43.7 °F /  6.5 °C 29.9in /  1013.9hPa Calm   1mph /  1.6km/h 83% 0in /  0.0mm 0 W/m2
21:44 48.2 °F /  9 °C 43.3 °F /  6.3 °C 30in /  1014.2hPa Calm     83% 0in /  0.0mm 0 W/m2
21:49 47.8 °F /  8.8 °C 43.2 °F /  6.2 °C 30in /  1014.2hPa Calm     84% 0in /  0.0mm 0 W/m2
21:54 47.7 °F /  8.7 °C 43 °F /  6.1 °C 30in /  1014.2hPa Calm     84% 0in /  0.0mm 0 W/m2
21:59 47.3 °F /  8.5 °C 43 °F /  6.1 °C 30in /  1014.6hPa Calm     85% 0in /  0.0mm 0 W/m2
22:04 46.9 °F /  8.3 °C 42.6 °F /  5.9 °C 30in /  1014.6hPa Calm     85% 0in /  0.0mm 0 W/m2
22:09 46.8 °F /  8.2 °C 42.8 °F /  6 °C 30in /  1014.6hPa Calm     86% 0in /  0.0mm 0 W/m2
22:14 46.6 °F /  8.1 °C 42.6 °F /  5.9 °C 30in /  1014.6hPa Calm     86% 0in /  0.0mm 0 W/m2
22:19 46.2 °F /  7.9 °C 42.3 °F /  5.7 °C 30in /  1014.6hPa Calm     86% 0in /  0.0mm 0 W/m2
22:25 46 °F /  7.8 °C 42.4 °F /  5.8 °C 30in /  1014.6hPa Calm     87% 0in /  0.0mm 0 W/m2
22:30 45.9 °F /  7.7 °C 42.3 °F /  5.7 °C 30in /  1014.6hPa Calm     87% 0in /  0.0mm 0 W/m2
22:35 45.5 °F /  7.5 °C 42.1 °F /  5.6 °C 30in /  1014.6hPa Calm     88% 0in /  0.0mm 0 W/m2
22:40 45.3 °F /  7.4 °C 41.9 °F /  5.5 °C 30in /  1014.9hPa Calm     88% 0in /  0.0mm 0 W/m2
22:45 45.1 °F /  7.3 °C 42.1 °F /  5.6 °C 30in /  1014.9hPa Calm     89% 0in /  0.0mm 0 W/m2
22:50 45.1 °F /  7.3 °C 42.1 °F /  5.6 °C 30in /  1014.9hPa Calm     89% 0in /  0.0mm 0 W/m2
22:55 45 °F /  7.2 °C 41.9 °F /  5.5 °C 30in /  1014.9hPa Calm     89% 0in /  0.0mm 0 W/m2
23:00 44.8 °F /  7.1 °C 41.7 °F /  5.4 °C 30in /  1014.9hPa Calm     89% 0in /  0.0mm 0 W/m2
23:05 44.4 °F /  6.9 °C 41.4 °F /  5.2 °C 30in /  1014.9hPa Calm     89% 0in /  0.0mm 0 W/m2
23:10 44.2 °F /  6.8 °C 41.5 °F /  5.3 °C 30in /  1014.9hPa Calm     90% 0in /  0.0mm 0 W/m2
23:15 44.2 °F /  6.8 °C 41.5 °F /  5.3 °C 30in /  1015.2hPa Calm     90% 0in /  0.0mm 0 W/m2
23:20 44.2 °F /  6.8 °C 41.5 °F /  5.3 °C 30in /  1015.2hPa Calm     90% 0in /  0.0mm 0 W/m2
23:25 44.1 °F /  6.7 °C 41.5 °F /  5.3 °C 30in /  1015.2hPa Calm     91% 0in /  0.0mm 0 W/m2
23:30 43.9 °F /  6.6 °C 41.4 °F /  5.2 °C 30in /  1015.2hPa Calm     91% 0in /  0.0mm 0 W/m2
23:35 43.9 °F /  6.6 °C 41.4 °F /  5.2 °C 30in /  1015.2hPa Calm     91% 0in /  0.0mm 0 W/m2
23:40 43.7 °F /  6.5 °C 41.2 °F /  5.1 °C 30in /  1015.2hPa Calm     91% 0in /  0.0mm 0 W/m2
23:45 43.5 °F /  6.4 °C 41 °F /  5 °C 30in /  1015.2hPa Calm     91% 0in /  0.0mm 0 W/m2
23:50 43.5 °F /  6.4 °C 41.4 °F /  5.2 °C 30in /  1015.2hPa Calm     92% 0in /  0.0mm 0 W/m2
23:55 43.5 °F /  6.4 °C 41.4 °F /  5.2 °C 30in /  1015.2hPa Calm     92% 0in /  0.0mm 0 W/m2
Juneau County Weather
Compliments of Weather Underground - 4 mb